Time;durP1;ratioP1;P1;durP2;ratioP2;P2;SDS_P1;SDS_P2;PMS_P1;PMS_P2;Temp;Humidity;BMP_temperature;BMP_pressure;BME280_temperature;BME280_humidity;BME280_pressure;Samples;Min_cycle;Max_cycle;Signal;HPM_P1;HPM_P2
2022/05/17 00:00:48;;;;;;;8.38;4.15;;;;;12.20;94645.00;;;;7395832;19;20596;-75
2022/05/17 00:03:16;;;;;;;6.22;4.00;;;;;12.20;94659.00;;;;7397109;19;20148;-77
2022/05/17 00:05:45;;;;;;;6.65;3.97;;;;;12.10;94648.00;;;;7394869;19;20145;-77
2022/05/17 00:08:19;;;;;;;8.45;3.95;;;;;12.20;94650.00;;;;7396047;19;20599;-76
2022/05/17 00:10:53;;;;;;;11.10;4.28;;;;;12.20;94652.00;;;;7395145;19;20144;-75
2022/05/17 00:13:34;;;;;;;6.97;4.25;;;;;12.30;94649.00;;;;7395667;19;20466;-77
2022/05/17 00:16:03;;;;;;;7.82;4.25;;;;;12.40;94641.00;;;;7395975;19;20133;-76
2022/05/17 00:18:37;;;;;;;9.52;4.43;;;;;12.40;94640.00;;;;7394759;19;20144;-77
2022/05/17 00:21:05;;;;;;;6.90;4.05;;;;;12.40;94643.00;;;;7395101;19;20214;-79
2022/05/17 00:23:36;;;;;;;7.53;3.75;;;;;12.30;94644.00;;;;7395182;19;20517;-77
2022/05/17 00:26:11;;;;;;;6.05;3.90;;;;;12.20;94639.00;;;;7394539;19;20136;-77
2022/05/17 00:28:39;;;;;;;9.02;3.80;;;;;12.20;94647.00;;;;7394783;19;20144;-77
2022/05/17 00:31:07;;;;;;;6.22;4.30;;;;;12.10;94650.00;;;;7394471;19;20138;-78
2022/05/17 00:33:41;;;;;;;8.48;4.00;;;;;12.10;94644.00;;;;7394368;19;20164;-78
2022/05/17 00:36:10;;;;;;;5.82;3.95;;;;;12.10;94649.00;;;;7394806;19;20147;-78
2022/05/17 00:38:38;;;;;;;7.22;4.22;;;;;12.00;94642.00;;;;7394668;19;20137;-77
2022/05/17 00:41:12;;;;;;;10.70;4.50;;;;;11.90;94645.00;;;;7394536;19;20121;-77
2022/05/17 00:46:52;;;;;;;9.82;4.13;;;;;11.90;94643.00;;;;7393953;19;20603;-78
2022/05/17 00:49:27;;;;;;;11.88;4.43;;;;;11.90;94635.00;;;;7395318;19;20139;-78
2022/05/17 00:52:27;;;;;;;6.53;4.32;;;;;12.00;94627.00;;;;7391914;19;20132;-78
2022/05/17 00:55:01;;;;;;;6.18;4.50;;;;;12.00;94630.00;;;;7394990;19;20140;-77
2022/05/17 00:57:46;;;;;;;11.90;4.82;;;;;12.00;94625.00;;;;7394813;19;20623;-80
2022/05/17 01:00:19;;;;;;;7.07;4.70;;;;;12.00;94623.00;;;;7393972;19;20140;-78
2022/05/17 01:02:57;;;;;;;10.65;4.90;;;;;12.10;94633.00;;;;7394603;19;20613;-78
2022/05/17 01:05:26;;;;;;;12.20;5.68;;;;;12.30;94625.00;;;;7394015;19;20129;-78
2022/05/17 01:08:01;;;;;;;5.75;4.60;;;;;12.10;94620.00;;;;7393286;19;20599;-77
2022/05/17 01:10:30;;;;;;;8.25;6.07;;;;;12.20;94618.00;;;;7394203;19;20170;-78
2022/05/17 01:15:52;;;;;;;10.18;6.85;;;;;12.60;94623.00;;;;7395041;19;20137;-76
2022/05/17 01:18:20;;;;;;;8.93;5.97;;;;;12.60;94622.00;;;;7394121;19;20216;-77
2022/05/17 01:20:48;;;;;;;9.15;5.78;;;;;12.80;94621.00;;;;7394839;19;20598;-77
2022/05/17 01:23:22;;;;;;;6.47;4.90;;;;;12.60;94623.00;;;;7394613;19;20144;-78
2022/05/17 01:25:49;;;;;;;12.00;5.75;;;;;12.60;94621.00;;;;7394673;19;20619;-77
2022/05/17 01:28:24;;;;;;;9.32;6.22;;;;;12.60;94626.00;;;;7393690;19;20141;-78
2022/05/17 01:31:03;;;;;;;10.73;6.60;;;;;12.70;94628.00;;;;7393615;19;20132;-76
2022/05/17 01:33:35;;;;;;;10.32;5.80;;;;;12.70;94621.00;;;;7393117;19;20187;-77
2022/05/17 01:36:11;;;;;;;9.45;6.72;;;;;12.80;94628.00;;;;7395416;19;20128;-76
2022/05/17 01:38:39;;;;;;;9.73;6.53;;;;;13.20;94619.00;;;;7394559;19;20607;-78
2022/05/17 01:41:07;;;;;;;9.52;5.00;;;;;13.10;94613.00;;;;7392713;19;20139;-78
2022/05/17 01:43:41;;;;;;;6.45;5.10;;;;;13.00;94609.00;;;;7392448;19;20602;-78
2022/05/17 01:46:09;;;;;;;7.35;4.85;;;;;12.70;94610.00;;;;7392763;19;20215;-78
2022/05/17 01:48:40;;;;;;;8.60;5.70;;;;;12.90;94606.00;;;;7392967;19;20165;-78
2022/05/17 01:51:15;;;;;;;9.27;6.68;;;;;12.90;94606.00;;;;7392037;19;20141;-78
2022/05/17 01:53:43;;;;;;;8.77;5.25;;;;;13.00;94602.00;;;;7392296;19;20141;-77
2022/05/17 01:56:11;;;;;;;9.82;6.32;;;;;13.00;94611.00;;;;7392748;19;20745;-79
2022/05/17 01:58:45;;;;;;;7.25;5.90;;;;;12.90;94612.00;;;;7391283;19;20128;-77
2022/05/17 02:01:12;;;;;;;7.90;5.20;;;;;13.00;94601.00;;;;7391698;19;20157;-77
2022/05/17 02:03:40;;;;;;;7.82;5.72;;;;;12.90;94605.00;;;;7391523;19;20141;-77
2022/05/17 02:06:15;;;;;;;8.45;6.20;;;;;12.80;94597.00;;;;7399572;19;20614;-78
2022/05/17 02:08:42;;;;;;;13.02;7.35;;;;;12.80;94601.00;;;;7400471;19;20508;-76
2022/05/17 02:11:10;;;;;;;14.93;6.38;;;;;12.90;94591.00;;;;7398364;19;20145;-77
2022/05/17 02:13:50;;;;;;;10.60;6.78;;;;;12.80;94593.00;;;;7399461;19;20144;-76
2022/05/17 02:16:18;;;;;;;8.40;5.82;;;;;12.70;94603.00;;;;7399392;19;20598;-77
2022/05/17 02:18:52;;;;;;;9.65;6.07;;;;;12.70;94598.00;;;;7398976;19;20139;-77
2022/05/17 02:21:19;;;;;;;12.32;6.55;;;;;12.60;94595.00;;;;7399218;19;20133;-77
2022/05/17 02:23:47;;;;;;;6.63;5.70;;;;;12.60;94598.00;;;;7398652;19;20156;-78
2022/05/17 02:26:21;;;;;;;12.73;5.88;;;;;12.30;94604.00;;;;7398588;19;20160;-78
2022/05/17 02:28:49;;;;;;;11.65;7.28;;;;;12.60;94607.00;;;;7399456;19;20161;-77
2022/05/17 02:31:17;;;;;;;10.02;5.78;;;;;12.60;94608.00;;;;7398539;19;20129;-78
2022/05/17 02:33:51;;;;;;;6.38;5.22;;;;;12.40;94605.00;;;;7396989;19;20176;-77
2022/05/17 02:36:18;;;;;;;8.90;5.82;;;;;12.30;94608.00;;;;7398139;19;20129;-78
2022/05/17 02:38:46;;;;;;;8.95;6.15;;;;;12.30;94616.00;;;;7399007;19;20137;-79
2022/05/17 02:41:23;;;;;;;14.40;8.05;;;;;12.40;94609.00;;;;7398951;19;20204;-77
2022/05/17 02:43:53;;;;;;;8.80;5.97;;;;;12.30;94623.00;;;;7398268;19;20148;-78
2022/05/17 02:46:20;;;;;;;10.90;6.57;;;;;12.30;94618.00;;;;7397617;19;20156;-78
2022/05/17 02:48:55;;;;;;;10.25;6.30;;;;;12.20;94621.00;;;;7398017;19;20148;-76
2022/05/17 02:51:22;;;;;;;11.45;8.05;;;;;12.40;94618.00;;;;7398511;19;20144;-79
2022/05/17 02:53:50;;;;;;;11.48;7.53;;;;;12.30;94616.00;;;;7398313;19;20137;-77
2022/05/17 02:56:24;;;;;;;13.07;7.35;;;;;12.20;94630.00;;;;7397362;19;20595;-76
2022/05/17 02:58:51;;;;;;;11.68;8.65;;;;;12.20;94630.00;;;;7396270;19;20650;-78
2022/05/17 03:01:19;;;;;;;11.90;6.90;;;;;12.40;94621.00;;;;7397930;19;20135;-77
2022/05/17 03:03:53;;;;;;;7.68;6.80;;;;;12.10;94632.00;;;;7397659;19;20160;-76
2022/05/17 03:06:21;;;;;;;13.95;7.28;;;;;12.20;94626.00;;;;7396865;19;20931;-76
2022/05/17 03:08:49;;;;;;;11.93;6.10;;;;;12.00;94635.00;;;;7398114;19;20148;-76
2022/05/17 03:11:37;;;;;;;11.32;6.80;;;;;11.90;94636.00;;;;7396948;19;20167;-75
2022/05/17 03:14:13;;;;;;;10.40;6.32;;;;;11.80;94633.00;;;;7397820;19;20156;-76
2022/05/17 03:16:47;;;;;;;9.45;6.13;;;;;11.70;94639.00;;;;7396649;19;20132;-75
2022/05/17 03:19:17;;;;;;;10.98;5.72;;;;;11.60;94637.00;;;;7397186;19;20135;-77
2022/05/17 03:21:44;;;;;;;7.03;5.28;;;;;11.60;94639.00;;;;7396944;19;20596;-75
2022/05/17 03:24:18;;;;;;;10.27;5.97;;;;;11.60;94639.00;;;;7398034;19;20591;-78
2022/05/17 03:27:06;;;;;;;10.57;7.03;;;;;11.50;94637.00;;;;7396007;19;20132;-75
2022/05/17 03:29:40;;;;;;;9.70;7.18;;;;;11.60;94634.00;;;;7397048;19;20671;-76
2022/05/17 03:32:08;;;;;;;10.18;8.48;;;;;11.80;94643.00;;;;7396620;19;20132;-75
2022/05/17 03:34:36;;;;;;;12.25;8.10;;;;;11.70;94646.00;;;;7394891;19;20539;-75
2022/05/17 03:37:10;;;;;;;11.50;7.25;;;;;11.70;94640.00;;;;7397173;19;20512;-76
2022/05/17 03:39:37;;;;;;;9.95;7.63;;;;;11.90;94653.00;;;;7397103;19;20133;-77
2022/05/17 03:42:09;;;;;;;11.60;7.47;;;;;12.10;94654.00;;;;7396024;19;20133;-77
2022/05/17 03:44:43;;;;;;;13.98;11.40;;;;;12.20;94650.00;;;;7394638;19;20203;-77
2022/05/17 03:47:10;;;;;;;10.43;7.97;;;;;12.10;94662.00;;;;7395845;19;20144;-78
2022/05/17 03:49:39;;;;;;;13.25;8.63;;;;;12.00;94655.00;;;;7396664;19;20514;-75
2022/05/17 03:52:13;;;;;;;10.02;6.78;;;;;11.80;94658.00;;;;7395712;19;20142;-78
2022/05/17 03:54:40;;;;;;;14.10;9.05;;;;;12.00;94658.00;;;;7396211;19;20225;-80
2022/05/17 03:57:08;;;;;;;13.23;7.55;;;;;12.00;94655.00;;;;7394736;19;20133;-78
2022/05/17 03:59:44;;;;;;;10.18;7.97;;;;;12.00;94658.00;;;;7396714;19;20148;-77
2022/05/17 04:02:11;;;;;;;11.20;8.25;;;;;12.10;94658.00;;;;7393839;19;20132;-77
2022/05/17 04:04:39;;;;;;;10.07;7.60;;;;;12.10;94661.00;;;;7394836;19;20140;-78
2022/05/17 04:07:13;;;;;;;12.60;7.93;;;;;12.20;94660.00;;;;7393973;19;20140;-77
2022/05/17 04:09:40;;;;;;;12.88;7.93;;;;;12.20;94661.00;;;;7393866;19;20133;-77
2022/05/17 04:12:09;;;;;;;16.88;9.80;;;;;12.40;94658.00;;;;7394064;19;20160;-77
2022/05/17 04:14:49;;;;;;;19.15;11.75;;;;;12.70;94656.00;;;;7394706;19;20163;-75
2022/05/17 04:17:17;;;;;;;11.20;8.43;;;;;12.70;94659.00;;;;7394842;19;20195;-77
2022/05/17 04:19:51;;;;;;;12.13;10.13;;;;;12.90;94652.00;;;;7395852;19;20158;-78
2022/05/17 04:22:18;;;;;;;11.20;9.20;;;;;12.90;94663.00;;;;7394621;19;20210;-78
2022/05/17 04:24:46;;;;;;;12.13;8.35;;;;;12.90;94656.00;;;;7394585;19;20494;-75
2022/05/17 04:27:23;;;;;;;10.93;7.47;;;;;12.90;94654.00;;;;7392000;19;20137;-77
2022/05/17 04:29:52;;;;;;;15.15;8.82;;;;;12.90;94656.00;;;;7395012;19;20144;-76
2022/05/17 04:32:20;;;;;;;8.52;7.72;;;;;12.90;94654.00;;;;7393443;19;20152;-77
2022/05/17 04:34:54;;;;;;;10.63;7.95;;;;;13.10;94660.00;;;;7392734;19;20160;-76
2022/05/17 04:37:22;;;;;;;10.07;7.93;;;;;13.20;94655.00;;;;7394833;19;20619;-77
2022/05/17 04:39:49;;;;;;;13.25;8.98;;;;;13.30;94665.00;;;;7395141;19;20201;-76
2022/05/17 04:42:24;;;;;;;13.05;8.98;;;;;13.50;94659.00;;;;7394583;19;20610;-78
2022/05/17 04:44:52;;;;;;;11.90;8.85;;;;;13.60;94659.00;;;;7396866;19;20259;-76
2022/05/17 04:47:20;;;;;;;13.60;9.13;;;;;13.90;94664.00;;;;7393124;19;20157;-76
2022/05/17 04:49:55;;;;;;;11.18;9.15;;;;;14.20;94659.00;;;;7395081;19;20140;-77
2022/05/17 04:52:23;;;;;;;15.98;8.95;;;;;14.40;94659.00;;;;7394469;19;20168;-77
2022/05/17 04:54:52;;;;;;;12.27;7.72;;;;;14.60;94657.00;;;;7393447;19;20143;-77
2022/05/17 04:57:27;;;;;;;11.60;7.25;;;;;14.70;94656.00;;;;7394649;19;20575;-77
2022/05/17 04:59:54;;;;;;;10.10;7.72;;;;;14.90;94658.00;;;;7395776;19;20153;-77
2022/05/17 05:02:22;;;;;;;9.45;7.00;;;;;15.00;94655.00;;;;7394511;19;20137;-77
2022/05/17 05:04:56;;;;;;;10.23;7.00;;;;;15.30;94655.00;;;;7393585;19;20607;-77
2022/05/17 05:07:23;;;;;;;8.55;7.13;;;;;15.40;94666.00;;;;7393333;19;20136;-76
2022/05/17 05:09:52;;;;;;;9.82;6.65;;;;;15.60;94659.00;;;;7396588;19;20141;-79
2022/05/17 05:12:33;;;;;;;10.38;6.50;;;;;15.80;94661.00;;;;7397695;19;20362;-79
2022/05/17 05:15:07;;;;;;;10.35;6.40;;;;;16.00;94664.00;;;;7395281;19;20619;-75
2022/05/17 05:17:43;;;;;;;9.38;5.63;;;;;16.10;94669.00;;;;7395488;19;20132;-76
2022/05/17 05:20:13;;;;;;;7.53;6.00;;;;;16.30;94665.00;;;;7392179;19;20129;-77
2022/05/17 05:22:41;;;;;;;6.60;5.53;;;;;16.50;94670.00;;;;7396022;19;20613;-77
2022/05/17 05:25:16;;;;;;;11.18;5.18;;;;;16.80;94669.00;;;;7392804;19;20148;-78
2022/05/17 05:27:44;;;;;;;7.47;5.43;;;;;17.00;94668.00;;;;7394134;19;20169;-79
2022/05/17 05:30:14;;;;;;;11.38;5.95;;;;;17.20;94674.00;;;;7394599;19;20128;-78
2022/05/17 05:32:48;;;;;;;9.50;5.60;;;;;17.40;94672.00;;;;7391125;19;20125;-77
2022/05/17 05:35:17;;;;;;;7.57;5.50;;;;;17.40;94668.00;;;;7393891;19;20605;-78
2022/05/17 05:37:47;;;;;;;9.32;5.60;;;;;17.50;94675.00;;;;7393996;19;20604;-77
2022/05/17 05:40:21;;;;;;;9.88;4.78;;;;;17.50;94669.00;;;;7395531;19;20148;-78
2022/05/17 05:42:50;;;;;;;8.88;4.97;;;;;17.80;94669.00;;;;7391492;19;20575;-76
2022/05/17 05:45:19;;;;;;;6.03;4.85;;;;;17.90;94664.00;;;;7393290;19;20647;-77
2022/05/17 05:47:55;;;;;;;6.68;4.72;;;;;18.00;94671.00;;;;7394330;19;20148;-76
2022/05/17 05:50:23;;;;;;;7.55;4.75;;;;;18.20;94675.00;;;;7396243;19;20140;-79
2022/05/17 05:52:50;;;;;;;12.73;4.82;;;;;18.30;94677.00;;;;7394722;19;20137;-79
2022/05/17 05:55:25;;;;;;;9.20;4.60;;;;;18.50;94690.00;;;;7394612;19;20215;-77
2022/05/17 05:57:54;;;;;;;5.50;5.00;;;;;18.60;94681.00;;;;7396264;19;20133;-77
2022/05/17 06:00:24;;;;;;;6.75;4.68;;;;;18.80;94688.00;;;;7395267;19;20486;-78
2022/05/17 06:03:04;;;;;;;6.32;5.53;;;;;19.00;94693.00;;;;7394849;19;20155;-76
2022/05/17 06:05:34;;;;;;;7.00;4.70;;;;;19.00;94696.00;;;;7396327;19;20476;-76
2022/05/17 06:08:13;;;;;;;8.65;4.95;;;;;19.20;94694.00;;;;7395937;19;20484;-76
2022/05/17 06:10:41;;;;;;;8.90;4.80;;;;;19.20;94695.00;;;;7398975;19;20200;-78
2022/05/17 06:13:22;;;;;;;6.28;4.75;;;;;19.40;94692.00;;;;7395465;19;20214;-80
2022/05/17 06:15:52;;;;;;;7.63;4.72;;;;;19.50;94697.00;;;;7398951;19;20152;-78
2022/05/17 06:18:27;;;;;;;5.05;4.20;;;;;19.60;94703.00;;;;7398359;19;20120;-77
2022/05/17 06:21:01;;;;;;;7.40;4.13;;;;;19.60;94700.00;;;;7394778;19;20145;-78
2022/05/17 06:23:36;;;;;;;6.55;4.57;;;;;19.70;94703.00;;;;7395002;19;20583;-77
2022/05/17 06:26:05;;;;;;;6.60;4.40;;;;;19.70;94700.00;;;;7396062;19;20208;-75
2022/05/17 06:28:33;;;;;;;5.20;3.88;;;;;19.80;94703.00;;;;7394022;19;20630;-75
2022/05/17 06:31:07;;;;;;;7.57;4.57;;;;;19.80;94704.00;;;;7393873;19;20190;-75
2022/05/17 06:33:35;;;;;;;11.23;4.65;;;;;20.00;94706.00;;;;7392283;19;20184;-76
2022/05/17 06:36:03;;;;;;;7.85;4.45;;;;;20.20;94702.00;;;;7395441;19;20140;-77
2022/05/17 06:38:37;;;;;;;6.60;5.38;;;;;20.20;94704.00;;;;7396493;19;20131;-77
2022/05/17 06:41:05;;;;;;;8.32;5.07;;;;;20.30;94706.00;;;;7393339;19;20607;-78
2022/05/17 06:43:35;;;;;;;7.78;4.18;;;;;20.40;94705.00;;;;7393513;19;20129;-74
2022/05/17 06:46:10;;;;;;;7.55;4.80;;;;;20.50;94705.00;;;;7393598;19;20165;-77
2022/05/17 06:48:45;;;;;;;5.57;4.53;;;;;20.60;94714.00;;;;7394008;19;20152;-77
2022/05/17 06:51:19;;;;;;;5.13;4.47;;;;;20.60;94707.00;;;;7398272;19;20549;-75
2022/05/17 06:53:48;;;;;;;8.70;4.95;;;;;20.90;94706.00;;;;7401226;19;20148;-78
2022/05/17 06:56:16;;;;;;;9.38;5.05;;;;;21.10;94706.00;;;;7402164;19;20145;-77
2022/05/17 06:58:50;;;;;;;9.50;4.68;;;;;21.40;94699.00;;;;7397244;19;20144;-76
2022/05/17 07:01:18;;;;;;;9.82;5.20;;;;;21.60;94710.00;;;;7400497;19;20165;-77
2022/05/17 07:03:46;;;;;;;5.65;4.60;;;;;22.00;94704.00;;;;7402600;19;20140;-77
2022/05/17 07:06:20;;;;;;;5.57;4.63;;;;;22.20;94709.00;;;;7402798;19;20148;-76
2022/05/17 07:08:48;;;;;;;9.38;5.07;;;;;22.70;94708.00;;;;7397990;19;20472;-77
2022/05/17 07:14:18;;;;;;;6.90;4.53;;;;;22.90;94712.00;;;;7401445;19;20170;-77
2022/05/17 07:16:46;;;;;;;6.90;4.80;;;;;22.50;94710.00;;;;7398715;19;20157;-77
2022/05/17 07:19:21;;;;;;;7.28;4.32;;;;;23.00;94706.00;;;;7399742;19;20160;-77
2022/05/17 07:22:05;;;;;;;5.53;3.95;;;;;22.60;94712.00;;;;7400966;19;20180;-79
2022/05/17 07:24:45;;;;;;;9.70;4.85;;;;;23.00;94710.00;;;;7402344;19;20136;-78
2022/05/17 07:27:15;;;;;;;6.03;4.20;;;;;23.00;94709.00;;;;7400006;19;20136;-76
2022/05/17 07:29:49;;;;;;;6.70;4.82;;;;;23.00;94705.00;;;;7398594;19;20124;-77
2022/05/17 07:32:17;;;;;;;5.95;4.75;;;;;22.70;94718.00;;;;7400099;19;20148;-75
2022/05/17 07:34:47;;;;;;;6.85;4.85;;;;;22.80;94713.00;;;;7395233;19;20838;-77
2022/05/17 07:37:21;;;;;;;5.07;4.07;;;;;22.80;94712.00;;;;7399529;19;20137;-77
2022/05/17 07:39:49;;;;;;;9.43;3.80;;;;;22.90;94708.00;;;;7400092;19;20131;-74
2022/05/17 07:42:17;;;;;;;5.50;3.35;;;;;23.00;94708.00;;;;7397637;19;20494;-75
2022/05/17 07:44:52;;;;;;;5.68;3.20;;;;;22.90;94711.00;;;;7397588;19;20135;-74
2022/05/17 07:47:20;;;;;;;4.97;3.00;;;;;23.00;94711.00;;;;7396026;19;20153;-76
2022/05/17 07:49:49;;;;;;;5.65;3.45;;;;;23.30;94710.00;;;;7397413;19;20145;-79
2022/05/17 07:52:23;;;;;;;7.07;3.30;;;;;23.10;94719.00;;;;7400706;19;20145;-79
2022/05/17 07:54:51;;;;;;;3.45;2.63;;;;;23.20;94719.00;;;;7397801;19;20160;-77
2022/05/17 07:57:19;;;;;;;3.83;3.10;;;;;23.10;94718.00;;;;7398275;19;20820;-79
2022/05/17 07:59:54;;;;;;;5.68;3.53;;;;;23.20;94722.00;;;;7397580;19;20182;-78
2022/05/17 08:02:22;;;;;;;5.32;3.47;;;;;23.50;94710.00;;;;7396836;19;20164;-81
2022/05/17 08:04:50;;;;;;;4.65;3.10;;;;;23.10;94721.00;;;;7397102;19;20646;-78
2022/05/17 08:07:25;;;;;;;5.57;3.30;;;;;22.80;94719.00;;;;7399057;19;20596;-79
2022/05/17 08:09:55;;;;;;;4.32;3.25;;;;;23.30;94719.00;;;;7394440;19;20203;-75
2022/05/17 08:12:24;;;;;;;7.55;3.55;;;;;23.00;94716.00;;;;7398676;19;20521;-77
2022/05/17 08:14:58;;;;;;;4.95;3.42;;;;;23.50;94715.00;;;;7398397;19;20133;-78
2022/05/17 08:17:26;;;;;;;4.95;3.55;;;;;23.50;94704.00;;;;7398937;19;20141;-79
2022/05/17 08:19:54;;;;;;;5.55;3.30;;;;;23.60;94707.00;;;;7399083;19;20135;-80
2022/05/17 08:22:29;;;;;;;5.13;2.63;;;;;24.20;94705.00;;;;7400780;19;20128;-77
2022/05/17 08:27:50;;;;;;;5.88;3.80;;;;;23.90;94713.00;;;;7397334;19;20133;-74
2022/05/17 08:30:21;;;;;;;4.40;3.10;;;;;23.70;94709.00;;;;7399864;19;20487;-77
2022/05/17 08:36:00;;;;;;;5.22;2.90;;;;;23.70;94718.00;;;;7398480;19;20137;-75
2022/05/17 08:38:34;;;;;;;5.78;3.25;;;;;24.10;94712.00;;;;7401982;19;20610;-76
2022/05/17 08:41:42;;;;;;;3.50;3.08;;;;;24.00;94716.00;;;;7397717;19;20129;-77
2022/05/17 08:44:16;;;;;;;4.68;3.33;;;;;24.20;94711.00;;;;7395713;19;20144;-76
2022/05/17 08:47:04;;;;;;;5.50;3.00;;;;;24.80;94702.00;;;;7397007;19;20140;-80
2022/05/17 08:49:59;;;;;;;4.90;3.10;;;;;24.60;94719.00;;;;7396736;19;20494;-75
2022/05/17 08:52:38;;;;;;;5.13;3.15;;;;;24.90;94709.00;;;;7400455;19;20137;-76
2022/05/17 08:55:19;;;;;;;7.32;3.50;;;;;25.10;94713.00;;;;7396136;19;20162;-76
2022/05/17 08:58:14;;;;;;;6.35;3.17;;;;;24.60;94730.00;;;;7399905;19;20141;-76
2022/05/17 09:01:02;;;;;;;3.40;3.10;;;;;23.70;94728.00;;;;7398899;19;20153;-78
2022/05/17 09:03:52;;;;;;;7.57;3.20;;;;;23.60;94726.00;;;;7396899;19;20141;-77
2022/05/17 09:06:37;;;;;;;4.60;3.25;;;;;23.90;94729.00;;;;7397699;19;20200;-78
2022/05/17 09:09:50;;;;;;;4.03;3.30;;;;;23.50;94725.00;;;;7394001;19;20496;-78
2022/05/17 09:12:52;;;;;;;6.95;3.60;;;;;23.70;94721.00;;;;7394580;19;20224;-76
2022/05/17 09:15:32;;;;;;;6.03;3.47;;;;;23.80;94718.00;;;;7394587;19;20503;-77
2022/05/17 09:18:05;;;;;;;10.93;3.45;;;;;24.60;94714.00;;;;7395152;19;20168;-76
2022/05/17 09:20:41;;;;;;;9.13;3.90;;;;;25.40;94709.00;;;;7396194;19;20145;-77
2022/05/17 09:23:09;;;;;;;10.15;3.22;;;;;25.40;94711.00;;;;7393115;19;20529;-77
2022/05/17 09:25:51;;;;;;;4.55;3.50;;;;;25.30;94712.00;;;;7394634;19;20148;-77
2022/05/17 09:28:44;;;;;;;5.88;3.33;;;;;26.00;94714.00;;;;7397233;19;20141;-77
2022/05/17 09:31:29;;;;;;;6.32;3.22;;;;;26.20;94715.00;;;;7394448;19;20472;-75
2022/05/17 09:34:08;;;;;;;4.88;2.92;;;;;25.40;94708.00;;;;7394918;19;20180;-77
2022/05/17 09:36:52;;;;;;;6.97;3.03;;;;;25.90;94714.00;;;;7393225;19;20133;-79
2022/05/17 09:39:27;;;;;;;5.00;2.60;;;;;25.50;94713.00;;;;7393820;19;20149;-75
2022/05/17 09:42:00;;;;;;;6.28;3.33;;;;;24.30;94714.00;;;;7394404;19;20851;-74
2022/05/17 09:44:44;;;;;;;6.00;3.60;;;;;24.90;94706.00;;;;7397086;19;20607;-75
2022/05/17 09:47:27;;;;;;;6.05;3.25;;;;;25.40;94699.00;;;;7391947;19;20200;-74
2022/05/17 09:53:03;;;;;;;5.15;3.17;;;;;26.40;94695.00;;;;7393277;19;20618;-76
2022/05/17 09:55:43;;;;;;;7.05;3.13;;;;;26.50;94696.00;;;;7396281;19;20133;-76
2022/05/17 09:58:27;;;;;;;3.97;2.65;;;;;26.60;94707.00;;;;7397501;19;20127;-77
2022/05/17 10:01:13;;;;;;;6.30;2.97;;;;;26.70;94700.00;;;;7393183;19;20168;-77
2022/05/17 10:03:57;;;;;;;4.22;3.10;;;;;26.60;94706.00;;;;7395702;19;20148;-76
2022/05/17 10:06:38;;;;;;;4.40;3.15;;;;;27.20;94693.00;;;;7398526;19;20133;-76
2022/05/17 10:09:28;;;;;;;5.57;3.28;;;;;27.80;94685.00;;;;7395464;19;20128;-77
2022/05/17 10:12:30;;;;;;;3.28;2.97;;;;;27.80;94694.00;;;;7396898;19;20163;-77
2022/05/17 10:15:12;;;;;;;6.45;3.20;;;;;27.90;94688.00;;;;7394327;19;20635;-75
2022/05/17 10:17:55;;;;;;;5.07;2.72;;;;;27.90;94700.00;;;;7397278;19;20461;-78
2022/05/17 10:20:52;;;;;;;4.40;3.22;;;;;27.10;94706.00;;;;7395921;19;20137;-76
2022/05/17 10:23:46;;;;;;;3.85;3.15;;;;;25.80;94712.00;;;;7390899;19;20626;-76
2022/05/17 10:26:26;;;;;;;5.65;3.22;;;;;24.90;94708.00;;;;7398923;19;20160;-76
2022/05/17 10:29:18;;;;;;;5.88;3.30;;;;;24.60;94711.00;;;;7398992;19;20546;-75
2022/05/17 10:32:10;;;;;;;7.03;3.03;;;;;24.40;94707.00;;;;7398051;19;20189;-75
2022/05/17 10:35:35;;;;;;;6.82;2.88;;;;;24.00;94706.00;;;;7396709;19;20512;-78
2022/05/17 10:38:20;;;;;;;4.30;3.10;;;;;24.20;94698.00;;;;7402337;19;20169;-77
2022/05/17 10:40:55;;;;;;;4.68;3.00;;;;;25.10;94677.00;;;;7398961;19;20137;-76
2022/05/17 10:43:41;;;;;;;4.85;2.92;;;;;25.80;94668.00;;;;7400113;19;20180;-75
2022/05/17 10:46:24;;;;;;;3.55;2.88;;;;;26.80;94665.00;;;;7401364;19;20631;-76
2022/05/17 10:49:11;;;;;;;7.63;2.63;;;;;26.60;94662.00;;;;7398728;19;20600;-75
2022/05/17 10:51:51;;;;;;;4.70;2.92;;;;;28.10;94661.00;;;;7400587;19;20158;-76
2022/05/17 10:54:54;;;;;;;5.40;2.92;;;;;28.00;94654.00;;;;7398703;19;20592;-76
2022/05/17 10:57:34;;;;;;;8.13;2.60;;;;;28.30;94649.00;;;;7400812;19;20129;-76
2022/05/17 11:00:37;;;;;;;3.15;2.60;;;;;26.80;94670.00;;;;7398676;19;20145;-76
2022/05/17 11:03:20;;;;;;;3.45;2.58;;;;;25.00;94676.00;;;;7400253;19;20603;-76
2022/05/17 11:06:26;;;;;;;5.05;2.72;;;;;24.60;94674.00;;;;7400235;19;20152;-75
2022/05/17 11:09:37;;;;;;;5.18;2.60;;;;;23.80;94688.00;;;;7399111;19;20216;-78
2022/05/17 11:12:10;;;;;;;3.08;2.72;;;;;23.30;94677.00;;;;7400405;19;20146;-76
2022/05/17 11:15:07;;;;;;;7.13;2.60;;;;;23.20;94674.00;;;;7401341;19;20141;-77
2022/05/17 11:17:54;;;;;;;4.88;2.83;;;;;23.60;94643.00;;;;7401468;19;20146;-75
2022/05/17 11:20:45;;;;;;;5.90;2.75;;;;;25.10;94654.00;;;;7399985;19;20495;-77
2022/05/17 11:23:38;;;;;;;3.45;2.53;;;;;26.00;94653.00;;;;7398219;19;20140;-76
2022/05/17 11:26:12;;;;;;;3.65;2.85;;;;;25.80;94662.00;;;;7400759;19;20220;-77
2022/05/17 11:28:55;;;;;;;3.25;2.40;;;;;25.50;94657.00;;;;7401301;19;20140;-76
2022/05/17 11:31:38;;;;;;;3.17;2.75;;;;;24.90;94651.00;;;;7398688;19;20170;-78
2022/05/17 11:34:36;;;;;;;2.65;2.45;;;;;24.60;94657.00;;;;7399134;19;20176;-77
2022/05/17 11:37:33;;;;;;;2.95;2.25;;;;;24.40;94657.00;;;;7397757;19;20721;-76
2022/05/17 11:40:04;;;;;;;5.57;2.53;;;;;24.30;94661.00;;;;7399910;19;20636;-76
2022/05/17 11:45:50;;;;;;;4.03;2.75;;;;;24.00;94660.00;;;;7394930;19;20141;-77
2022/05/17 11:48:44;;;;;;;4.63;2.42;;;;;23.60;94664.00;;;;7390980;19;20139;-78
2022/05/17 11:51:12;;;;;;;4.22;1.95;;;;;23.30;94657.00;;;;7396419;19;20193;-78
2022/05/17 11:53:49;;;;;;;2.30;2.10;;;;;23.50;94660.00;;;;7396898;19;20152;-76
2022/05/17 11:56:34;;;;;;;5.63;1.92;;;;;23.40;94655.00;;;;7399414;19;20624;-77
2022/05/17 11:59:14;;;;;;;3.83;2.10;;;;;23.40;94648.00;;;;7395267;19;20502;-75
2022/05/17 12:01:45;;;;;;;5.28;2.40;;;;;23.60;94647.00;;;;7398699;19;20133;-78
2022/05/17 12:04:24;;;;;;;4.95;2.08;;;;;23.80;94642.00;;;;7399685;19;20149;-75
2022/05/17 12:06:55;;;;;;;3.42;2.25;;;;;23.90;94643.00;;;;7396191;19;20234;-75
2022/05/17 12:09:38;;;;;;;8.00;1.80;;;;;24.40;94628.00;;;;7396454;19;20173;-76
2022/05/17 12:12:36;;;;;;;7.03;2.25;;;;;26.30;94607.00;;;;7397685;19;20149;-77
2022/05/17 12:15:34;;;;;;;2.97;1.88;;;;;28.00;94592.00;;;;7395744;19;20129;-74
2022/05/17 12:18:28;;;;;;;2.25;1.83;;;;;27.90;94620.00;;;;7398049;19;20145;-77
2022/05/17 12:21:18;;;;;;;3.30;2.10;;;;;27.00;94624.00;;;;7398145;19;20132;-78
2022/05/17 12:24:34;;;;;;;2.85;1.95;;;;;25.00;94627.00;;;;7393732;19;20515;-77
2022/05/17 12:27:14;;;;;;;3.45;2.20;;;;;24.20;94631.00;;;;7395652;19;20140;-80
2022/05/17 12:33:36;;;;;;;2.75;1.92;;;;;23.60;94628.00;;;;7393956;19;20172;-80
2022/05/17 12:36:20;;;;;;;3.67;2.10;;;;;23.70;94624.00;;;;7398030;19;20157;-76
2022/05/17 12:45:01;;;;;;;4.78;2.35;;;;;24.30;94619.00;;;;7394703;19;20138;-77
2022/05/17 12:47:38;;;;;;;2.35;1.95;;;;;24.40;94611.00;;;;7395588;19;20137;-76
2022/05/17 12:50:23;;;;;;;3.35;2.17;;;;;24.60;94608.00;;;;7395890;19;20129;-76
2022/05/17 12:52:57;;;;;;;3.90;2.45;;;;;25.10;94599.00;;;;7395560;19;20129;-77
2022/05/17 12:55:32;;;;;;;4.47;2.20;;;;;26.80;94579.00;;;;7393546;19;20148;-78
2022/05/17 12:58:14;;;;;;;2.63;2.17;;;;;28.20;94574.00;;;;7396228;19;20473;-77
2022/05/17 13:00:58;;;;;;;3.67;2.40;;;;;28.70;94577.00;;;;7395221;19;20141;-76
2022/05/17 13:03:28;;;;;;;5.20;2.28;;;;;28.90;94568.00;;;;7394915;19;20172;-77
2022/05/17 13:06:05;;;;;;;4.45;2.50;;;;;29.20;94566.00;;;;7392700;19;20161;-76
2022/05/17 13:08:37;;;;;;;7.75;2.65;;;;;29.20;94562.00;;;;7397240;19;20152;-76
2022/05/17 13:11:26;;;;;;;6.63;2.47;;;;;28.90;94573.00;;;;7392094;19;20147;-75
2022/05/17 13:14:15;;;;;;;3.58;2.25;;;;;27.60;94596.00;;;;7393099;19;20187;-74
2022/05/17 13:16:51;;;;;;;3.55;2.03;;;;;26.20;94600.00;;;;7395140;19;20143;-76
2022/05/17 13:19:25;;;;;;;4.13;2.38;;;;;24.90;94603.00;;;;7392929;19;20172;-74
2022/05/17 13:22:00;;;;;;;3.20;2.22;;;;;24.90;94592.00;;;;7394305;19;20208;-74
2022/05/17 13:24:49;;;;;;;2.50;2.30;;;;;24.90;94602.00;;;;7395780;19;20172;-76
2022/05/17 13:27:46;;;;;;;3.75;2.00;;;;;24.10;94601.00;;;;7391421;19;20618;-77
2022/05/17 13:30:30;;;;;;;2.97;2.33;;;;;23.80;94600.00;;;;7396149;19;20614;-75